createdAt,value
2023-03-03T00:02:29.246Z,-1.97
2023-03-03T00:09:12.881Z,-2.07
2023-03-03T00:16:11.718Z,-2.13
2023-03-03T00:22:54.844Z,-2.17
2023-03-03T00:29:46.072Z,-2.23
2023-03-03T00:36:37.880Z,-2.22
2023-03-03T00:43:29.424Z,-2.21
2023-03-03T00:50:11.771Z,-2.18
2023-03-03T00:56:54.697Z,-2.15
2023-03-03T01:03:37.475Z,-2.11
2023-03-03T01:10:20.448Z,-2.10
2023-03-03T01:17:03.853Z,-2.07
2023-03-03T01:23:46.291Z,-2.03
2023-03-03T01:30:28.761Z,-1.97
2023-03-03T01:37:11.072Z,-1.95
2023-03-03T01:43:53.416Z,-1.94
2023-03-03T01:50:56.274Z,-1.93
2023-03-03T01:57:44.943Z,-1.90
2023-03-03T02:04:27.604Z,-1.89
2023-03-03T02:11:13.032Z,-1.89
2023-03-03T02:18:15.731Z,-1.89
2023-03-03T02:25:02.395Z,-1.87
2023-03-03T02:31:45.324Z,-1.86
2023-03-03T02:38:36.461Z,-1.84
2023-03-03T02:45:18.877Z,-1.80
2023-03-03T02:52:04.275Z,-1.76
2023-03-03T02:58:47.025Z,-1.72
2023-03-03T03:05:29.558Z,-1.71
2023-03-03T03:12:12.845Z,-1.76
2023-03-03T03:18:56.060Z,-1.78
2023-03-03T03:25:45.312Z,-1.81
2023-03-03T03:32:31.778Z,-1.83
2023-03-03T03:39:14.407Z,-1.83
2023-03-03T03:46:01.571Z,-1.81
2023-03-03T03:52:45.197Z,-1.80
2023-03-03T03:59:28.476Z,-1.79
2023-03-03T04:06:11.132Z,-1.77
2023-03-03T04:12:53.957Z,-1.73
2023-03-03T04:19:37.836Z,-1.69
2023-03-03T04:26:21.994Z,-1.66
2023-03-03T04:33:05.179Z,-1.63
2023-03-03T04:39:47.735Z,-1.60
2023-03-03T04:46:30.525Z,-1.54
2023-03-03T04:53:13.754Z,-1.43
2023-03-03T04:59:58.086Z,-1.33
2023-03-03T05:06:41.067Z,-1.22
2023-03-03T05:13:23.732Z,-1.09
2023-03-03T05:20:08.604Z,-0.97
2023-03-03T05:26:51.019Z,-0.87
2023-03-03T05:33:33.428Z,-0.79
2023-03-03T05:40:16.160Z,-0.72
2023-03-03T05:46:59.317Z,-0.64
2023-03-03T05:53:42.506Z,-0.57
2023-03-03T06:00:25.137Z,-0.50
2023-03-03T06:07:07.497Z,-0.40
2023-03-03T06:13:50.027Z,-0.32
2023-03-03T06:20:33.207Z,-0.21
2023-03-03T06:27:15.622Z,-0.10
2023-03-03T06:33:57.958Z,0.05
2023-03-03T06:40:40.307Z,0.21
2023-03-03T06:47:22.801Z,0.41
2023-03-03T06:54:21.189Z,0.61
2023-03-03T07:01:03.620Z,0.78
2023-03-03T07:07:46.218Z,0.91
2023-03-03T07:14:30.645Z,1.05
2023-03-03T07:21:33.585Z,1.25
2023-03-03T07:28:34.335Z,1.46
2023-03-03T07:35:44.844Z,1.65
2023-03-03T07:42:41.285Z,1.80
2023-03-03T07:49:44.016Z,1.95
2023-03-03T07:56:35.272Z,2.11
2023-03-03T08:03:20.917Z,2.21
2023-03-03T08:10:26.697Z,2.29
2023-03-03T08:17:22.963Z,2.39
2023-03-03T08:24:08.202Z,2.49
2023-03-03T08:30:51.061Z,2.51
2023-03-03T08:37:33.730Z,2.60
2023-03-03T08:44:16.180Z,2.74
2023-03-03T08:51:04.976Z,2.87
2023-03-03T08:58:07.933Z,3.04
2023-03-03T09:04:50.325Z,3.19
2023-03-03T09:11:33.888Z,3.25
2023-03-03T09:18:51.360Z,3.35
2023-03-03T09:25:37.827Z,3.46
2023-03-03T09:32:39.320Z,3.56
2023-03-03T09:39:29.141Z,3.70
2023-03-03T09:46:49.418Z,3.80
2023-03-03T09:53:59.180Z,3.83
2023-03-03T10:01:22.315Z,3.93
2023-03-03T10:08:36.310Z,4.08
2023-03-03T10:15:52.520Z,4.19
2023-03-03T10:22:49.849Z,4.27
2023-03-03T10:29:45.650Z,4.32
2023-03-03T10:36:54.177Z,4.36
2023-03-03T10:44:07.277Z,4.45
2023-03-03T10:51:55.968Z,4.59
2023-03-03T10:58:55.586Z,4.73
2023-03-03T11:06:12.311Z,4.86
2023-03-03T11:13:30.989Z,5.05
2023-03-03T11:20:46.273Z,5.18
2023-03-03T11:28:22.163Z,5.19
2023-03-03T11:35:07.544Z,5.31
2023-03-03T11:42:43.073Z,5.41
2023-03-03T11:49:57.722Z,5.56
2023-03-03T11:56:47.451Z,5.78
2023-03-03T12:03:45.233Z,5.97
2023-03-03T12:10:43.086Z,6.18
2023-03-03T12:17:43.260Z,6.37
2023-03-03T12:25:05.128Z,6.53
2023-03-03T12:32:31.311Z,6.70
2023-03-03T12:39:34.812Z,6.84
2023-03-03T12:46:36.106Z,6.99
2023-03-03T12:53:40.304Z,7.15
2023-03-03T13:00:52.715Z,7.21
2023-03-03T13:07:46.193Z,7.34
2023-03-03T13:15:16.629Z,7.49
2023-03-03T13:22:37.798Z,7.65
2023-03-03T13:29:24.419Z,7.64
2023-03-03T13:36:11.592Z,7.64
2023-03-03T13:43:03.052Z,7.57
2023-03-03T13:50:09.823Z,7.55
2023-03-03T13:57:14.359Z,7.43
2023-03-03T14:04:30.979Z,7.42
2023-03-03T14:11:55.279Z,7.44
2023-03-03T14:19:05.719Z,7.60
2023-03-03T14:26:09.816Z,7.83
2023-03-03T14:33:10.538Z,7.97
2023-03-03T14:40:21.934Z,7.85
2023-03-03T14:47:22.619Z,7.63
2023-03-03T14:54:24.598Z,7.36
2023-03-03T15:01:34.109Z,7.11
2023-03-03T15:08:23.105Z,6.82
2023-03-03T15:15:11.347Z,6.57
2023-03-03T15:21:56.988Z,6.30
2023-03-03T15:29:16.543Z,6.09
2023-03-03T15:36:31.682Z,5.91
2023-03-03T15:44:00.381Z,5.74
2023-03-03T15:51:12.759Z,5.58
2023-03-03T15:58:43.039Z,5.40
2023-03-03T16:05:54.261Z,5.22
2023-03-03T16:12:58.215Z,5.02
2023-03-03T16:20:01.434Z,4.85
2023-03-03T16:27:08.622Z,4.70
2023-03-03T16:34:11.753Z,4.53
2023-03-03T16:41:01.943Z,4.38
2023-03-03T16:47:47.474Z,4.27
2023-03-03T16:54:57.309Z,4.16
2023-03-03T17:02:21.057Z,4.10
2023-03-03T17:09:31.810Z,4.03
2023-03-03T17:16:20.518Z,3.98
2023-03-03T17:23:33.839Z,3.94
2023-03-03T17:30:36.725Z,3.87
2023-03-03T17:38:06.764Z,3.84
2023-03-03T17:45:15.155Z,3.77
2023-03-03T17:52:49.114Z,3.74
2023-03-03T18:00:00.649Z,3.67
2023-03-03T18:07:12.978Z,3.58
2023-03-03T18:14:42.171Z,3.47
2023-03-03T18:21:45.084Z,3.32
2023-03-03T18:29:18.287Z,3.18
2023-03-03T18:36:27.079Z,3.04
2023-03-03T18:43:43.232Z,2.92
2023-03-03T18:50:41.084Z,2.82
2023-03-03T18:57:23.396Z,2.70
2023-03-03T19:04:16.403Z,2.64
2023-03-03T19:11:01.479Z,2.54
2023-03-03T19:17:49.976Z,2.46
2023-03-03T19:24:34.611Z,2.36
2023-03-03T19:31:25.902Z,2.27
2023-03-03T19:38:18.655Z,2.18
2023-03-03T19:45:46.254Z,2.08
2023-03-03T19:53:00.801Z,2.02
2023-03-03T20:00:09.523Z,1.93
2023-03-03T20:07:39.281Z,1.89
2023-03-03T20:14:57.917Z,1.85
2023-03-03T20:22:09.596Z,1.83
2023-03-03T20:29:14.089Z,1.86
2023-03-03T20:36:24.524Z,1.91
2023-03-03T20:43:19.009Z,1.93
2023-03-03T20:50:01.389Z,1.93
2023-03-03T20:56:56.571Z,1.95
2023-03-03T21:03:44.987Z,1.95
2023-03-03T21:10:36.252Z,1.95
2023-03-03T21:17:30.098Z,1.95
2023-03-03T21:24:15.411Z,1.99
2023-03-03T21:31:13.383Z,1.98
2023-03-03T21:37:57.953Z,1.99
2023-03-03T21:44:50.451Z,2.04
2023-03-03T21:51:32.944Z,2.07
2023-03-03T21:58:16.663Z,2.07
2023-03-03T22:05:00.968Z,2.06
2023-03-03T22:11:43.505Z,2.07
2023-03-03T22:18:26.189Z,2.05
2023-03-03T22:25:09.638Z,2.04
2023-03-03T22:31:52.035Z,2.04
2023-03-03T22:38:35.030Z,2.06
2023-03-03T22:45:17.849Z,2.10
2023-03-03T22:52:02.693Z,2.15
2023-03-03T22:58:45.189Z,2.20
2023-03-03T23:05:27.615Z,2.22
2023-03-03T23:12:09.985Z,2.23
2023-03-03T23:18:52.292Z,2.23
2023-03-03T23:25:34.643Z,2.25
2023-03-03T23:32:17.068Z,2.24
2023-03-03T23:38:59.417Z,2.25
2023-03-03T23:45:41.954Z,2.25
2023-03-03T23:52:24.549Z,2.27
2023-03-03T23:59:10.396Z,2.29
